createdAt,value
2023-03-17T00:01:54.277Z,1.00
2023-03-17T00:04:24.010Z,1.17
2023-03-17T00:06:50.802Z,1.30
2023-03-17T00:09:18.800Z,1.30
2023-03-17T00:11:46.092Z,1.30
2023-03-17T00:14:12.539Z,1.63
2023-03-17T00:16:42.297Z,1.57
2023-03-17T00:19:17.367Z,1.38
2023-03-17T00:21:46.005Z,1.35
2023-03-17T00:24:14.905Z,1.00
2023-03-17T00:26:42.828Z,1.50
2023-03-17T00:29:09.849Z,1.33
2023-03-17T00:31:36.840Z,1.35
2023-03-17T00:34:03.262Z,1.50
2023-03-17T00:36:32.801Z,1.52
2023-03-17T00:38:59.674Z,1.15
2023-03-17T00:41:27.153Z,1.57
2023-03-17T00:43:53.609Z,1.67
2023-03-17T00:46:29.173Z,1.05
2023-03-17T00:48:55.642Z,1.15
2023-03-17T00:51:23.311Z,1.23
2023-03-17T00:53:50.337Z,1.30
2023-03-17T00:56:19.664Z,1.35
2023-03-17T00:58:47.511Z,1.33
2023-03-17T01:01:14.595Z,1.17
2023-03-17T01:03:41.559Z,1.30
2023-03-17T01:06:12.659Z,1.57
2023-03-17T01:08:40.631Z,1.55
2023-03-17T01:11:08.602Z,1.50
2023-03-17T01:13:35.066Z,1.83
2023-03-17T01:16:01.565Z,1.50
2023-03-17T01:18:28.027Z,1.60
2023-03-17T01:20:54.580Z,1.25
2023-03-17T01:23:22.348Z,1.50
2023-03-17T01:25:49.064Z,1.60
2023-03-17T01:28:18.557Z,1.52
2023-03-17T01:30:45.965Z,1.30
2023-03-17T01:33:14.485Z,1.50
2023-03-17T01:35:41.851Z,1.73
2023-03-17T01:38:08.666Z,1.10
2023-03-17T01:40:38.855Z,1.25
2023-03-17T01:43:08.337Z,1.20
2023-03-17T01:46:12.714Z,1.60
2023-03-17T01:48:51.185Z,1.10
2023-03-17T01:51:25.128Z,1.27
2023-03-17T01:53:53.604Z,1.50
2023-03-17T01:56:20.584Z,1.20
2023-03-17T01:58:49.223Z,1.85
2023-03-17T02:01:15.746Z,0.93
2023-03-17T02:03:42.661Z,1.20
2023-03-17T02:06:09.842Z,0.98
2023-03-17T02:08:36.362Z,1.53
2023-03-17T02:11:05.078Z,1.45
2023-03-17T02:13:32.914Z,1.30
2023-03-17T02:15:59.390Z,1.20
2023-03-17T02:18:25.835Z,1.38
2023-03-17T02:21:31.320Z,1.20
2023-03-17T02:24:00.215Z,1.00
2023-03-17T02:26:28.353Z,1.20
2023-03-17T02:28:54.787Z,1.00
2023-03-17T02:31:21.507Z,1.15
2023-03-17T02:33:47.954Z,1.13
2023-03-17T02:36:14.587Z,1.25
2023-03-17T02:38:41.170Z,1.20
2023-03-17T02:41:09.824Z,0.98
2023-03-17T02:43:36.451Z,1.15
2023-03-17T02:46:03.439Z,1.37
2023-03-17T02:48:29.975Z,1.15
2023-03-17T02:50:56.331Z,1.27
2023-03-17T02:53:22.694Z,1.23
2023-03-17T02:55:49.230Z,0.80
2023-03-17T02:58:15.666Z,0.97
2023-03-17T03:00:42.466Z,1.17
2023-03-17T03:03:09.295Z,1.10
2023-03-17T03:05:35.857Z,0.77
2023-03-17T03:08:03.079Z,1.27
2023-03-17T03:10:29.673Z,0.73
2023-03-17T03:12:56.337Z,0.85
2023-03-17T03:15:23.112Z,0.88
2023-03-17T03:17:50.900Z,0.80
2023-03-17T03:20:18.347Z,0.60
2023-03-17T03:22:44.742Z,0.97
2023-03-17T03:25:11.133Z,1.02
2023-03-17T03:27:37.769Z,1.00
2023-03-17T03:30:05.252Z,0.75
2023-03-17T03:32:31.928Z,0.88
2023-03-17T03:34:58.422Z,0.70
2023-03-17T03:37:25.046Z,0.63
2023-03-17T03:39:52.133Z,0.85
2023-03-17T03:42:18.665Z,0.70
2023-03-17T03:44:45.240Z,0.80
2023-03-17T03:47:11.859Z,0.97
2023-03-17T03:49:38.411Z,0.75
2023-03-17T03:52:05.246Z,0.70
2023-03-17T03:54:31.657Z,0.70
2023-03-17T03:56:58.065Z,0.95
2023-03-17T03:59:24.458Z,1.10
2023-03-17T04:01:50.974Z,0.98
2023-03-17T04:04:17.552Z,0.90
2023-03-17T04:06:44.164Z,0.60
2023-03-17T04:09:10.601Z,0.70
2023-03-17T04:11:37.217Z,0.70
2023-03-17T04:14:04.227Z,0.60
2023-03-17T04:16:30.695Z,1.05
2023-03-17T04:18:57.665Z,0.63
2023-03-17T04:21:24.125Z,0.82
2023-03-17T04:23:50.612Z,0.87
2023-03-17T04:26:18.713Z,0.70
2023-03-17T04:28:45.319Z,1.58
2023-03-17T04:31:12.371Z,0.63
2023-03-17T04:33:39.506Z,0.70
2023-03-17T04:36:07.751Z,0.83
2023-03-17T04:38:34.469Z,0.85
2023-03-17T04:41:00.826Z,0.93
2023-03-17T04:43:27.830Z,0.60
2023-03-17T04:45:54.398Z,0.88
2023-03-17T04:48:20.979Z,0.50
2023-03-17T04:50:47.924Z,0.70
2023-03-17T04:53:14.552Z,0.80
2023-03-17T04:55:41.652Z,0.80
2023-03-17T04:58:09.236Z,0.70
2023-03-17T05:00:38.819Z,0.80
2023-03-17T05:03:16.801Z,0.70
2023-03-17T05:05:53.288Z,0.90
2023-03-17T05:08:20.135Z,0.70
2023-03-17T05:10:46.515Z,0.88
2023-03-17T05:13:13.032Z,0.70
2023-03-17T05:15:40.638Z,0.70
2023-03-17T05:18:07.053Z,0.70
2023-03-17T05:20:33.552Z,0.60
2023-03-17T05:23:00.198Z,1.02
2023-03-17T05:25:26.616Z,0.70
2023-03-17T05:27:53.026Z,0.50
2023-03-17T05:30:19.604Z,0.98
2023-03-17T05:32:46.850Z,0.80
2023-03-17T05:35:13.705Z,0.80
2023-03-17T05:37:40.072Z,0.50
2023-03-17T05:40:06.913Z,0.75
2023-03-17T05:42:33.307Z,0.55
2023-03-17T05:45:00.003Z,0.60
2023-03-17T05:47:26.647Z,0.88
2023-03-17T05:49:53.096Z,0.60
2023-03-17T05:52:20.216Z,0.70
2023-03-17T05:54:48.958Z,0.77
2023-03-17T05:57:16.218Z,0.60
2023-03-17T05:59:42.764Z,0.60
2023-03-17T06:02:11.175Z,0.60
2023-03-17T06:04:38.585Z,0.70
2023-03-17T06:07:05.981Z,0.75
2023-03-17T06:09:33.447Z,0.93
2023-03-17T06:12:00.272Z,0.80
2023-03-17T06:14:27.265Z,1.10
2023-03-17T06:16:53.939Z,0.73
2023-03-17T06:19:20.813Z,1.08
2023-03-17T06:21:47.357Z,0.75
2023-03-17T06:24:14.082Z,0.80
2023-03-17T06:26:41.439Z,1.03
2023-03-17T06:29:09.705Z,0.98
2023-03-17T06:31:37.244Z,0.82
2023-03-17T06:34:03.864Z,0.80
2023-03-17T06:36:32.157Z,0.68
2023-03-17T06:38:59.606Z,0.70
2023-03-17T06:41:26.338Z,0.90
2023-03-17T06:43:52.916Z,0.82
2023-03-17T06:46:19.401Z,0.80
2023-03-17T06:48:45.818Z,1.08
2023-03-17T06:51:12.536Z,1.07
2023-03-17T06:53:38.943Z,0.85
2023-03-17T06:56:05.676Z,1.25
2023-03-17T06:58:32.171Z,1.00
2023-03-17T07:00:59.748Z,1.17
2023-03-17T07:03:27.110Z,1.30
2023-03-17T07:05:54.745Z,1.10
2023-03-17T07:08:21.962Z,1.40
2023-03-17T07:10:48.928Z,1.70
2023-03-17T07:13:15.395Z,1.60
2023-03-17T07:15:42.677Z,1.13
2023-03-17T07:18:09.114Z,1.02
2023-03-17T07:20:35.776Z,1.25
2023-03-17T07:23:02.557Z,1.42
2023-03-17T07:25:29.328Z,1.25
2023-03-17T07:27:56.656Z,1.80
2023-03-17T07:30:23.479Z,1.25
2023-03-17T07:32:50.164Z,0.90
2023-03-17T07:35:16.783Z,1.52
2023-03-17T07:37:43.229Z,1.52
2023-03-17T07:40:11.272Z,1.70
2023-03-17T07:42:37.667Z,1.10
2023-03-17T07:45:05.938Z,1.05
2023-03-17T07:47:32.365Z,1.15
2023-03-17T07:49:58.839Z,1.23
2023-03-17T07:52:25.501Z,1.00
2023-03-17T07:54:52.163Z,1.30
2023-03-17T07:57:18.687Z,2.17
2023-03-17T07:59:45.556Z,1.08
2023-03-17T08:02:16.464Z,1.27
2023-03-17T08:04:44.127Z,1.40
2023-03-17T08:07:11.056Z,1.40
2023-03-17T08:09:37.625Z,0.85
2023-03-17T08:12:04.944Z,1.23
2023-03-17T08:14:31.440Z,1.25
2023-03-17T08:16:58.597Z,1.07
2023-03-17T08:19:25.066Z,1.00
2023-03-17T08:21:51.625Z,1.33
2023-03-17T08:24:18.398Z,1.15
2023-03-17T08:26:48.928Z,1.30
2023-03-17T08:29:16.017Z,1.17
2023-03-17T08:31:44.071Z,1.38
2023-03-17T08:34:11.775Z,2.10
2023-03-17T08:36:38.163Z,1.25
2023-03-17T08:39:05.230Z,1.42
2023-03-17T08:41:31.988Z,1.43
2023-03-17T08:43:58.772Z,1.60
2023-03-17T08:46:29.890Z,1.52
2023-03-17T08:48:57.991Z,1.20
2023-03-17T08:51:27.181Z,1.42
2023-03-17T08:53:55.358Z,1.40
2023-03-17T08:56:22.628Z,1.40
2023-03-17T08:58:50.729Z,1.58
2023-03-17T09:01:18.938Z,1.55
2023-03-17T09:03:45.563Z,1.33
2023-03-17T09:06:13.739Z,1.20
2023-03-17T09:08:45.113Z,1.13
2023-03-17T09:11:16.419Z,1.38
2023-03-17T09:13:43.007Z,1.60
2023-03-17T09:16:09.861Z,1.77
2023-03-17T09:18:36.369Z,1.57
2023-03-17T09:21:03.539Z,1.60
2023-03-17T09:23:30.184Z,1.88
2023-03-17T09:25:57.124Z,1.80
2023-03-17T09:28:24.597Z,1.63
2023-03-17T09:30:51.521Z,1.73
2023-03-17T09:33:19.276Z,1.60
2023-03-17T09:35:45.670Z,1.40
2023-03-17T09:38:12.746Z,1.67
2023-03-17T09:40:48.172Z,1.50
2023-03-17T09:43:42.861Z,1.50
2023-03-17T09:46:32.649Z,1.58
2023-03-17T09:49:04.147Z,2.13
2023-03-17T09:51:32.437Z,1.48
2023-03-17T09:54:18.252Z,1.73
2023-03-17T09:56:50.735Z,1.60
2023-03-17T09:59:38.550Z,1.35
2023-03-17T10:02:23.932Z,1.65
2023-03-17T10:04:50.546Z,1.67
2023-03-17T10:07:23.401Z,2.20
2023-03-17T10:10:14.872Z,1.60
2023-03-17T10:13:08.454Z,1.60
2023-03-17T10:15:41.113Z,1.85
2023-03-17T10:18:14.161Z,1.67
2023-03-17T10:20:51.639Z,1.95
2023-03-17T10:23:23.206Z,2.00
2023-03-17T10:25:49.650Z,1.60
2023-03-17T10:28:31.646Z,2.08
2023-03-17T10:31:18.245Z,2.10
2023-03-17T10:33:49.051Z,2.00
2023-03-17T10:36:17.591Z,1.33
2023-03-17T10:38:54.297Z,1.73
2023-03-17T10:41:21.087Z,1.85
2023-03-17T10:43:50.886Z,2.00
2023-03-17T10:46:25.691Z,2.05
2023-03-17T10:48:56.327Z,1.90
2023-03-17T10:51:32.239Z,2.08
2023-03-17T10:54:09.454Z,1.90
2023-03-17T10:56:39.831Z,1.98
2023-03-17T10:59:15.122Z,1.70
2023-03-17T11:01:50.113Z,1.53
2023-03-17T11:04:32.956Z,2.25
2023-03-17T11:07:05.226Z,1.90
2023-03-17T11:09:35.337Z,1.73
2023-03-17T11:12:08.838Z,2.08
2023-03-17T11:14:35.502Z,2.03
2023-03-17T11:17:17.636Z,1.52
2023-03-17T11:19:54.001Z,1.92
2023-03-17T11:22:34.915Z,1.85
2023-03-17T11:25:09.537Z,1.67
2023-03-17T11:27:47.201Z,2.03
2023-03-17T11:30:32.776Z,2.03
2023-03-17T11:33:14.141Z,2.03
2023-03-17T11:36:11.916Z,1.73
2023-03-17T11:38:54.676Z,1.90
2023-03-17T11:41:41.699Z,1.93
2023-03-17T11:44:28.876Z,2.10
2023-03-17T11:47:10.366Z,2.20
2023-03-17T11:49:39.056Z,2.20
2023-03-17T11:52:22.141Z,1.98
2023-03-17T11:54:48.898Z,2.17
2023-03-17T11:57:23.446Z,1.92
2023-03-17T11:59:56.228Z,1.77
2023-03-17T12:02:45.948Z,1.90
2023-03-17T12:05:13.523Z,2.00
2023-03-17T12:07:53.259Z,2.20
2023-03-17T12:10:49.271Z,2.35
2023-03-17T12:13:25.533Z,2.58
2023-03-17T12:16:18.098Z,2.20
2023-03-17T12:19:03.399Z,2.13
2023-03-17T12:21:41.002Z,2.13
2023-03-17T12:24:17.312Z,2.10
2023-03-17T12:26:59.437Z,2.25
2023-03-17T12:29:52.448Z,2.55
2023-03-17T12:32:37.132Z,2.33
2023-03-17T12:35:22.788Z,2.30
2023-03-17T12:37:49.525Z,2.28
2023-03-17T12:40:25.205Z,2.08
2023-03-17T12:43:31.361Z,2.15
2023-03-17T12:46:10.023Z,2.40
2023-03-17T12:49:21.343Z,3.00
2023-03-17T12:52:20.085Z,2.42
2023-03-17T12:54:49.927Z,2.13
2023-03-17T12:57:23.030Z,2.70
2023-03-17T12:59:57.443Z,2.80
2023-03-17T13:02:36.193Z,3.20
2023-03-17T13:05:07.823Z,2.53
2023-03-17T13:07:47.136Z,2.35
2023-03-17T13:10:21.425Z,2.90
2023-03-17T13:12:49.382Z,2.53
2023-03-17T13:15:34.911Z,2.60
2023-03-17T13:18:16.356Z,3.08
2023-03-17T13:20:56.597Z,2.60
2023-03-17T13:23:43.984Z,2.67
2023-03-17T13:26:19.033Z,2.70
2023-03-17T13:28:51.038Z,2.70
2023-03-17T13:31:26.789Z,2.90
2023-03-17T13:34:11.849Z,2.72
2023-03-17T13:36:53.265Z,2.95
2023-03-17T13:39:38.330Z,3.13
2023-03-17T13:42:46.288Z,2.87
2023-03-17T13:45:27.172Z,2.83
2023-03-17T13:47:58.959Z,2.60
2023-03-17T13:50:32.254Z,3.22
2023-03-17T13:53:04.897Z,2.70
2023-03-17T13:55:35.808Z,2.77
2023-03-17T13:58:10.593Z,2.72
2023-03-17T14:00:41.441Z,2.97
2023-03-17T14:03:20.542Z,3.10
2023-03-17T14:05:49.352Z,3.00
2023-03-17T14:08:22.290Z,3.17
2023-03-17T14:10:54.359Z,2.80
2023-03-17T14:13:25.217Z,3.15
2023-03-17T14:16:05.416Z,2.65
2023-03-17T14:18:38.161Z,3.03
2023-03-17T14:21:11.683Z,3.23
2023-03-17T14:23:38.293Z,3.35
2023-03-17T14:26:06.509Z,3.05
2023-03-17T14:28:34.732Z,3.15
2023-03-17T14:31:07.469Z,3.17
2023-03-17T14:33:38.141Z,2.80
2023-03-17T14:36:08.330Z,2.83
2023-03-17T14:38:38.363Z,2.90
2023-03-17T14:41:23.631Z,2.80
2023-03-17T14:43:52.254Z,3.30
2023-03-17T14:46:24.312Z,2.50
2023-03-17T14:48:58.083Z,2.72
2023-03-17T14:51:30.463Z,2.70
2023-03-17T14:54:01.004Z,2.90
2023-03-17T14:56:34.881Z,2.78
2023-03-17T14:59:41.329Z,2.90
2023-03-17T15:02:44.650Z,3.22
2023-03-17T15:05:17.006Z,3.17
2023-03-17T15:07:43.432Z,3.22
2023-03-17T15:10:21.572Z,3.40
2023-03-17T15:12:48.429Z,3.00
2023-03-17T15:15:23.694Z,3.30
2023-03-17T15:17:58.822Z,3.40
2023-03-17T15:20:25.876Z,3.00
2023-03-17T15:22:55.256Z,2.92
2023-03-17T15:25:38.227Z,3.47
2023-03-17T15:28:12.598Z,2.97
2023-03-17T15:30:47.577Z,2.88
2023-03-17T15:33:22.422Z,2.75
2023-03-17T15:35:50.391Z,3.42
2023-03-17T15:38:17.310Z,2.80
2023-03-17T15:40:43.744Z,2.92
2023-03-17T15:43:17.768Z,2.95
2023-03-17T15:45:45.255Z,3.00
2023-03-17T15:48:26.527Z,2.80
2023-03-17T15:50:55.386Z,3.00
2023-03-17T15:53:22.662Z,2.78
2023-03-17T15:55:49.078Z,3.13
2023-03-17T15:58:39.955Z,2.90
2023-03-17T16:01:28.329Z,3.03
2023-03-17T16:03:54.929Z,2.20
2023-03-17T16:06:23.012Z,2.97
2023-03-17T16:08:50.286Z,2.88
2023-03-17T16:11:27.894Z,2.60
2023-03-17T16:13:56.274Z,3.03
2023-03-17T16:16:35.149Z,3.10
2023-03-17T16:19:02.631Z,2.80
2023-03-17T16:21:29.551Z,3.42
2023-03-17T16:23:56.270Z,2.80
2023-03-17T16:26:22.673Z,3.00
2023-03-17T16:28:49.828Z,2.97
2023-03-17T16:31:29.236Z,2.47
2023-03-17T16:33:56.031Z,2.72
2023-03-17T16:36:23.811Z,2.95
2023-03-17T16:38:51.015Z,2.60
2023-03-17T16:41:22.863Z,2.70
2023-03-17T16:43:52.581Z,2.65
2023-03-17T16:46:21.252Z,2.95
2023-03-17T16:48:49.445Z,2.78
2023-03-17T16:51:16.740Z,3.25
2023-03-17T16:53:43.414Z,3.70
2023-03-17T16:56:18.764Z,3.22
2023-03-17T16:58:46.972Z,3.00
2023-03-17T17:01:20.791Z,3.22
2023-03-17T17:03:47.754Z,3.03
2023-03-17T17:06:14.974Z,3.17
2023-03-17T17:08:42.690Z,3.78
2023-03-17T17:11:09.508Z,3.33
2023-03-17T17:13:37.286Z,3.80
2023-03-17T17:16:03.884Z,3.45
2023-03-17T17:18:30.427Z,3.23
2023-03-17T17:20:56.942Z,3.58
2023-03-17T17:23:26.361Z,3.90
2023-03-17T17:25:54.065Z,4.07
2023-03-17T17:28:23.624Z,3.50
2023-03-17T17:30:51.381Z,3.70
2023-03-17T17:33:19.144Z,4.28
2023-03-17T17:35:47.301Z,3.83
2023-03-17T17:38:28.840Z,4.18
2023-03-17T17:40:57.769Z,7.15
2023-03-17T17:43:25.196Z,4.87
2023-03-17T17:45:52.510Z,4.55
2023-03-17T17:48:22.522Z,4.60
2023-03-17T17:50:50.519Z,4.60
2023-03-17T17:53:18.501Z,4.30
2023-03-17T17:55:47.616Z,4.87
2023-03-17T17:58:22.799Z,4.45
2023-03-17T18:00:49.977Z,4.55
2023-03-17T18:03:16.478Z,5.68
2023-03-17T18:05:42.878Z,4.30
2023-03-17T18:08:13.539Z,5.00
2023-03-17T18:10:40.054Z,4.82
2023-03-17T18:13:06.540Z,5.35
2023-03-17T18:15:33.475Z,5.47
2023-03-17T18:17:59.966Z,5.50
2023-03-17T18:20:26.722Z,5.40
2023-03-17T18:22:54.030Z,6.28
2023-03-17T18:25:20.716Z,5.90
2023-03-17T18:27:47.624Z,6.35
2023-03-17T18:30:22.236Z,6.60
2023-03-17T18:32:51.711Z,5.57
2023-03-17T18:35:21.381Z,5.70
2023-03-17T18:37:48.659Z,5.75
2023-03-17T18:40:18.741Z,5.20
2023-03-17T18:42:46.314Z,5.82
2023-03-17T18:45:13.877Z,6.23
2023-03-17T18:47:41.707Z,5.53
2023-03-17T18:50:10.952Z,5.47
2023-03-17T18:52:39.574Z,6.53
2023-03-17T18:55:06.631Z,5.80
2023-03-17T18:57:33.059Z,5.30
2023-03-17T18:59:59.554Z,5.45
2023-03-17T19:02:26.182Z,5.35
2023-03-17T19:04:52.930Z,6.30
2023-03-17T19:08:24.381Z,6.30
2023-03-17T19:10:50.997Z,5.47
2023-03-17T19:13:17.495Z,5.57
2023-03-17T19:15:43.878Z,6.55
2023-03-17T19:18:10.328Z,6.13
2023-03-17T19:20:36.799Z,6.00
2023-03-17T19:25:33.931Z,6.97
2023-03-17T19:28:00.517Z,7.43
2023-03-17T19:30:27.145Z,6.65
2023-03-17T19:32:53.655Z,6.93
2023-03-17T19:35:20.853Z,6.03
2023-03-17T19:37:47.239Z,6.32
2023-03-17T19:40:14.290Z,5.75
2023-03-17T19:42:41.008Z,5.93
2023-03-17T19:45:08.068Z,5.65
2023-03-17T19:47:34.530Z,5.70
2023-03-17T19:50:00.891Z,5.65
2023-03-17T19:52:27.308Z,5.43
2023-03-17T19:54:53.774Z,4.68
2023-03-17T19:57:20.741Z,4.32
2023-03-17T19:59:47.305Z,5.20
2023-03-17T20:02:15.148Z,3.70
2023-03-17T20:04:41.620Z,3.97
2023-03-17T20:07:08.883Z,3.22
2023-03-17T20:09:37.736Z,3.47
2023-03-17T20:12:04.428Z,3.57
2023-03-17T20:14:30.995Z,3.33
2023-03-17T20:16:57.399Z,3.38
2023-03-17T20:19:23.936Z,3.58
2023-03-17T20:21:50.383Z,3.30
2023-03-17T20:24:17.436Z,3.60
2023-03-17T20:26:44.627Z,3.17
2023-03-17T20:29:14.231Z,3.35
2023-03-17T20:31:41.887Z,3.47
2023-03-17T20:34:08.540Z,3.42
2023-03-17T20:36:34.986Z,2.97
2023-03-17T20:39:01.351Z,3.40
2023-03-17T20:41:27.896Z,2.88
2023-03-17T20:43:54.281Z,3.47
2023-03-17T20:46:24.294Z,3.78
2023-03-17T20:48:58.658Z,3.13
2023-03-17T20:51:26.644Z,2.47
2023-03-17T20:53:53.796Z,3.03
2023-03-17T20:56:22.361Z,2.92
2023-03-17T20:58:49.764Z,3.28
2023-03-17T21:01:20.744Z,3.47
2023-03-17T21:03:48.038Z,3.60
2023-03-17T21:06:14.793Z,3.45
2023-03-17T21:08:41.216Z,3.20
2023-03-17T21:11:09.256Z,3.72
2023-03-17T21:13:35.974Z,4.30
2023-03-17T21:16:02.858Z,3.95
2023-03-17T21:18:29.785Z,3.67
2023-03-17T21:20:56.729Z,3.65
2023-03-17T21:23:23.690Z,4.13
2023-03-17T21:25:55.888Z,3.83
2023-03-17T21:28:22.786Z,3.85
2023-03-17T21:30:49.982Z,3.80
2023-03-17T21:33:16.618Z,4.20
2023-03-17T21:35:43.141Z,3.83
2023-03-17T21:38:09.780Z,4.30
2023-03-17T21:40:36.293Z,3.97
2023-03-17T21:43:02.832Z,4.15
2023-03-17T21:45:29.269Z,3.47
2023-03-17T21:47:55.812Z,4.40
2023-03-17T21:50:23.071Z,3.73
2023-03-17T21:52:49.906Z,3.72
2023-03-17T21:55:16.512Z,3.60
2023-03-17T21:57:43.210Z,3.97
2023-03-17T22:00:11.619Z,3.63
2023-03-17T22:02:38.027Z,4.10
2023-03-17T22:05:04.945Z,3.85
2023-03-17T22:07:31.611Z,4.53
2023-03-17T22:09:58.805Z,3.17
2023-03-17T22:12:25.288Z,4.10
2023-03-17T22:14:52.161Z,3.50
2023-03-17T22:17:18.556Z,3.80
2023-03-17T22:19:45.231Z,3.85
2023-03-17T22:22:11.649Z,3.92
2023-03-17T22:24:38.258Z,4.00
2023-03-17T22:27:05.904Z,3.53
2023-03-17T22:29:32.476Z,3.55
2023-03-17T22:31:59.762Z,3.80
2023-03-17T22:34:26.174Z,4.00
2023-03-17T22:36:52.589Z,3.92
2023-03-17T22:39:18.976Z,3.57
2023-03-17T22:41:45.666Z,3.72
2023-03-17T22:44:12.639Z,3.70
2023-03-17T22:46:40.885Z,3.42
2023-03-17T22:49:07.827Z,3.72
2023-03-17T22:51:34.876Z,4.60
2023-03-17T22:54:01.648Z,4.03
2023-03-17T22:56:28.767Z,4.88
2023-03-17T22:58:55.704Z,4.60
2023-03-17T23:01:25.540Z,4.38
2023-03-17T23:03:53.134Z,4.07
2023-03-17T23:06:19.945Z,4.25
2023-03-17T23:08:46.902Z,4.60
2023-03-17T23:11:18.199Z,4.30
2023-03-17T23:13:46.748Z,4.25
2023-03-17T23:16:13.547Z,4.83
2023-03-17T23:18:40.138Z,5.22
2023-03-17T23:21:08.700Z,4.63
2023-03-17T23:23:36.784Z,4.88
2023-03-17T23:26:03.541Z,4.75
2023-03-17T23:28:30.039Z,4.30
2023-03-17T23:30:56.445Z,5.10
2023-03-17T23:33:24.035Z,4.85
2023-03-17T23:35:51.393Z,4.30
2023-03-17T23:38:21.862Z,5.10
2023-03-17T23:40:49.396Z,4.23
2023-03-17T23:43:16.208Z,4.38
2023-03-17T23:45:42.784Z,3.90
2023-03-17T23:48:10.039Z,4.45
2023-03-17T23:50:37.096Z,4.78
2023-03-17T23:53:03.844Z,4.87
2023-03-17T23:55:30.576Z,4.72
2023-03-17T23:57:56.970Z,5.38
